Time;durP1;ratioP1;P1;durP2;ratioP2;P2;SDS_P1;SDS_P2;PMS_P1;PMS_P2;Temp;Humidity;BMP_temperature;BMP_pressure;BME280_temperature;BME280_humidity;BME280_pressure;Samples;Min_cycle;Max_cycle;Signal;HPM_P1;HPM_P2
2022/07/02 00:01:58;;;;;;;5.30;2.35;;;14.90;99.90;;;;;;5030760;28;20086;-75
2022/07/02 00:04:29;;;;;;;5.85;2.13;;;14.90;99.90;;;;;;5034761;28;20049;-75
2022/07/02 00:06:55;;;;;;;3.95;2.42;;;14.90;99.90;;;;;;5067347;28;20052;-75
2022/07/02 00:09:21;;;;;;;6.15;3.00;;;14.90;99.90;;;;;;5053830;28;20044;-74
2022/07/02 00:11:48;;;;;;;6.57;2.55;;;14.90;99.90;;;;;;5032151;28;20129;-75
2022/07/02 00:14:15;;;;;;;6.13;2.75;;;14.90;99.90;;;;;;5034199;28;20046;-75
2022/07/02 00:16:46;;;;;;;6.82;2.78;;;14.90;99.90;;;;;;5034533;28;20081;-76
2022/07/02 00:19:15;;;;;;;5.30;2.63;;;14.90;99.90;;;;;;5035750;28;20578;-75
2022/07/02 00:21:41;;;;;;;5.35;2.67;;;14.90;99.90;;;;;;5032892;28;20044;-75
2022/07/02 00:24:07;;;;;;;6.35;2.72;;;14.90;99.90;;;;;;5050799;28;20452;-74
2022/07/02 00:26:45;;;;;;;5.63;2.58;;;14.90;99.90;;;;;;5034106;28;20038;-74
2022/07/02 00:29:40;;;;;;;5.97;2.40;;;14.90;99.90;;;;;;5052144;28;20041;-75
2022/07/02 00:32:06;;;;;;;4.65;2.47;;;14.80;99.90;;;;;;5014252;28;20084;-75
2022/07/02 00:34:35;;;;;;;6.55;2.78;;;14.90;99.90;;;;;;5033961;28;20053;-74
2022/07/02 00:37:02;;;;;;;6.68;2.72;;;14.80;99.90;;;;;;5033927;28;20041;-74
2022/07/02 00:39:28;;;;;;;7.65;2.67;;;14.80;99.90;;;;;;5055297;28;20481;-75
2022/07/02 00:41:54;;;;;;;5.57;2.50;;;14.70;99.90;;;;;;5037342;28;20029;-74
2022/07/02 00:44:22;;;;;;;4.82;2.70;;;14.70;99.90;;;;;;5036492;28;20048;-76
2022/07/02 00:46:48;;;;;;;5.07;2.60;;;14.70;99.90;;;;;;5037229;28;20394;-75
2022/07/02 00:49:14;;;;;;;7.22;3.00;;;14.70;99.90;;;;;;5049664;28;20033;-74
2022/07/02 00:51:40;;;;;;;6.78;2.80;;;14.60;99.90;;;;;;5033793;28;20045;-74
2022/07/02 00:54:05;;;;;;;4.35;2.60;;;14.60;99.90;;;;;;5017572;28;20048;-74
2022/07/02 00:56:33;;;;;;;7.78;3.33;;;14.60;99.90;;;;;;5034129;28;20034;-74
2022/07/02 00:58:58;;;;;;;8.25;2.70;;;14.60;99.90;;;;;;5049727;28;20076;-74
2022/07/02 01:01:24;;;;;;;7.82;2.88;;;14.60;99.90;;;;;;5029106;28;20076;-74
2022/07/02 01:03:52;;;;;;;4.57;2.60;;;14.60;99.90;;;;;;5053431;28;20465;-74
2022/07/02 01:06:17;;;;;;;6.35;2.70;;;14.60;99.90;;;;;;5036921;28;20045;-75
2022/07/02 01:11:31;;;;;;;7.80;2.67;;;14.50;99.90;;;;;;5037399;28;20501;-74
2022/07/02 01:13:57;;;;;;;6.50;2.60;;;14.50;99.90;;;;;;5053269;28;20037;-74
2022/07/02 01:16:23;;;;;;;5.97;2.70;;;14.50;99.90;;;;;;5036420;28;20486;-73
2022/07/02 01:18:49;;;;;;;4.70;2.50;;;14.40;99.90;;;;;;5053161;28;20041;-74
2022/07/02 01:21:14;;;;;;;5.15;2.50;;;14.40;99.90;;;;;;5051794;28;20041;-74
2022/07/02 01:23:40;;;;;;;7.32;2.70;;;14.40;99.90;;;;;;5051175;28;20048;-75
2022/07/02 01:26:06;;;;;;;6.82;2.78;;;14.40;99.90;;;;;;5036363;28;20037;-75
2022/07/02 01:28:31;;;;;;;6.18;2.60;;;14.40;99.90;;;;;;5052686;28;20041;-75
2022/07/02 01:30:57;;;;;;;6.22;2.58;;;14.40;99.90;;;;;;5051201;28;20401;-75
2022/07/02 01:33:23;;;;;;;6.38;2.70;;;14.40;99.90;;;;;;5050609;28;20036;-75
2022/07/02 01:35:48;;;;;;;6.82;3.03;;;14.40;99.90;;;;;;5053017;28;20124;-75
2022/07/02 01:38:14;;;;;;;5.50;2.58;;;14.40;99.90;;;;;;5022386;28;20037;-76
2022/07/02 01:40:40;;;;;;;5.50;2.63;;;14.40;99.90;;;;;;5048761;28;20068;-75
2022/07/02 01:43:05;;;;;;;5.07;2.50;;;14.30;99.90;;;;;;5047496;28;20059;-75
2022/07/02 01:45:31;;;;;;;5.05;2.70;;;14.20;99.90;;;;;;5016301;28;20473;-75
2022/07/02 01:47:56;;;;;;;6.50;2.65;;;14.10;99.90;;;;;;5032780;28;20037;-75
2022/07/02 01:50:22;;;;;;;7.00;2.85;;;14.10;99.90;;;;;;5043049;28;20037;-75
2022/07/02 01:52:48;;;;;;;7.15;2.90;;;14.10;99.90;;;;;;5049503;28;20089;-74
2022/07/02 01:55:13;;;;;;;8.23;3.00;;;14.10;99.90;;;;;;5026969;28;20037;-74
2022/07/02 01:57:39;;;;;;;7.20;3.15;;;14.10;99.90;;;;;;5052407;28;20033;-75
2022/07/02 02:00:08;;;;;;;6.68;3.22;;;14.10;99.90;;;;;;5050693;28;20037;-75
2022/07/02 02:02:34;;;;;;;6.50;3.28;;;14.10;99.90;;;;;;5050535;28;20041;-76
2022/07/02 02:05:00;;;;;;;5.50;2.90;;;14.10;99.90;;;;;;5015926;28;20551;-75
2022/07/02 02:07:27;;;;;;;7.93;3.25;;;14.10;99.90;;;;;;5032101;28;20440;-75
2022/07/02 02:09:53;;;;;;;5.90;2.95;;;14.00;99.90;;;;;;5043444;28;20500;-75
2022/07/02 02:12:19;;;;;;;5.88;3.20;;;14.00;99.90;;;;;;5052030;28;20067;-75
2022/07/02 02:14:44;;;;;;;5.20;3.00;;;14.00;99.90;;;;;;5033571;28;20038;-76
2022/07/02 02:17:10;;;;;;;7.55;2.83;;;14.00;99.90;;;;;;5032158;28;20082;-76
2022/07/02 02:19:36;;;;;;;6.78;3.30;;;13.90;99.90;;;;;;5033343;28;20041;-74
2022/07/02 02:22:01;;;;;;;8.15;3.15;;;13.90;99.90;;;;;;5048691;28;20041;-75
2022/07/02 02:24:27;;;;;;;8.68;3.15;;;14.00;99.90;;;;;;5051430;28;20093;-76
2022/07/02 02:26:52;;;;;;;8.43;3.15;;;14.00;99.90;;;;;;5042750;28;20034;-76
2022/07/02 02:29:18;;;;;;;6.13;3.30;;;14.00;99.90;;;;;;5035471;28;20052;-76
2022/07/02 02:31:43;;;;;;;6.90;2.97;;;14.00;99.90;;;;;;5030382;28;20037;-76
2022/07/02 02:34:09;;;;;;;6.15;3.00;;;14.00;99.90;;;;;;5046339;28;20164;-75
2022/07/02 02:36:34;;;;;;;7.78;3.10;;;14.00;99.90;;;;;;5051349;28;20501;-75
2022/07/02 02:39:00;;;;;;;6.75;3.35;;;13.90;99.90;;;;;;5050346;28;20087;-75
2022/07/02 02:41:26;;;;;;;9.23;3.25;;;13.90;99.90;;;;;;5035125;28;20037;-75
2022/07/02 02:43:51;;;;;;;7.20;3.00;;;13.80;99.90;;;;;;5034595;28;20033;-75
2022/07/02 02:46:17;;;;;;;7.13;3.35;;;13.90;99.90;;;;;;5051254;28;20086;-76
2022/07/02 02:48:43;;;;;;;7.40;3.47;;;13.90;99.90;;;;;;5049750;28;20041;-77
2022/07/02 02:51:11;;;;;;;8.70;3.63;;;13.90;99.90;;;;;;5042294;28;20064;-77
2022/07/02 02:53:36;;;;;;;7.82;3.22;;;13.80;99.90;;;;;;5042374;28;20033;-77
2022/07/02 02:56:03;;;;;;;9.70;3.88;;;13.80;99.90;;;;;;5057764;28;20478;-76
2022/07/02 02:58:28;;;;;;;8.23;3.80;;;13.80;99.90;;;;;;5050696;28;20087;-76
2022/07/02 03:00:55;;;;;;;7.40;3.55;;;13.80;99.90;;;;;;5051296;28;20025;-76
2022/07/02 03:03:20;;;;;;;8.90;3.92;;;13.80;99.90;;;;;;5035314;28;20041;-77
2022/07/02 03:05:46;;;;;;;6.78;3.70;;;13.80;99.90;;;;;;5066874;28;20094;-77
2022/07/02 03:08:12;;;;;;;9.32;3.90;;;13.80;99.90;;;;;;5054083;28;20049;-77
2022/07/02 03:10:37;;;;;;;7.88;3.97;;;13.80;99.90;;;;;;5038917;28;20481;-76
2022/07/02 03:13:03;;;;;;;7.60;3.60;;;13.80;99.90;;;;;;5054141;28;20136;-76
2022/07/02 03:15:28;;;;;;;7.35;3.55;;;13.80;99.90;;;;;;5053844;28;20037;-76
2022/07/02 03:17:54;;;;;;;6.65;3.95;;;13.80;99.90;;;;;;5052872;28;20045;-77
2022/07/02 03:20:20;;;;;;;9.65;4.15;;;13.80;99.90;;;;;;5052872;28;20113;-77
2022/07/02 03:22:45;;;;;;;8.82;4.30;;;13.80;99.90;;;;;;5055207;28;20044;-76
2022/07/02 03:25:11;;;;;;;9.52;4.03;;;13.80;99.90;;;;;;5027623;28;20405;-77
2022/07/02 03:27:37;;;;;;;6.95;3.97;;;13.90;99.90;;;;;;5041908;28;20564;-77
2022/07/02 03:30:05;;;;;;;7.70;3.88;;;13.80;99.90;;;;;;5036972;28;20064;-77
2022/07/02 03:32:31;;;;;;;8.98;3.90;;;13.90;99.90;;;;;;5053046;28;20117;-77
2022/07/02 03:34:56;;;;;;;8.40;4.13;;;13.90;99.90;;;;;;5043585;28;20072;-77
2022/07/02 03:37:25;;;;;;;8.15;3.90;;;13.90;99.90;;;;;;5053650;28;20045;-77
2022/07/02 03:39:51;;;;;;;7.90;4.20;;;13.80;99.90;;;;;;5037278;28;20045;-77
2022/07/02 03:42:16;;;;;;;8.52;4.35;;;13.80;99.90;;;;;;5054585;28;20067;-77
2022/07/02 03:44:42;;;;;;;8.20;4.13;;;13.80;99.90;;;;;;5070636;28;20540;-77
2022/07/02 03:47:08;;;;;;;9.80;4.40;;;13.80;99.90;;;;;;5044589;28;20036;-77
2022/07/02 03:49:33;;;;;;;7.88;3.97;;;13.80;99.90;;;;;;5038061;28;20048;-77
2022/07/02 03:51:59;;;;;;;7.35;4.15;;;13.70;99.90;;;;;;5036860;28;20049;-77
2022/07/02 03:54:24;;;;;;;8.48;4.43;;;13.60;99.90;;;;;;5053799;28;20041;-77
2022/07/02 03:56:50;;;;;;;8.60;4.15;;;13.60;99.90;;;;;;5049063;28;20052;-77
2022/07/02 03:59:16;;;;;;;7.10;4.07;;;13.60;99.90;;;;;;5034906;28;20467;-76
2022/07/02 04:01:41;;;;;;;8.60;4.40;;;13.60;99.90;;;;;;5047890;28;20048;-77
2022/07/02 04:04:07;;;;;;;7.53;3.90;;;13.70;99.90;;;;;;5070570;28;20052;-76
2022/07/02 04:06:32;;;;;;;7.00;4.18;;;13.60;99.90;;;;;;5053606;28;20040;-76
2022/07/02 04:08:58;;;;;;;7.95;4.50;;;13.60;99.90;;;;;;5060274;28;20048;-76
2022/07/02 04:11:25;;;;;;;7.43;4.53;;;13.60;99.90;;;;;;5052440;28;20052;-77
2022/07/02 04:13:50;;;;;;;8.10;3.67;;;13.80;99.90;;;;;;5049652;28;20046;-77
2022/07/02 04:16:16;;;;;;;7.90;4.22;;;13.80;99.90;;;;;;5035577;28;20048;-78
2022/07/02 04:18:42;;;;;;;8.57;4.50;;;13.80;99.90;;;;;;5052143;28;20039;-78
2022/07/02 04:21:07;;;;;;;9.90;4.72;;;13.80;99.90;;;;;;5047597;28;20118;-77
2022/07/02 04:23:33;;;;;;;7.75;4.38;;;13.90;99.90;;;;;;5053870;28;20043;-77
2022/07/02 04:25:58;;;;;;;8.55;4.50;;;14.00;99.90;;;;;;5036716;28;20045;-77
2022/07/02 04:28:25;;;;;;;7.45;3.80;;;14.00;99.90;;;;;;5023030;28;20501;-76
2022/07/02 04:30:50;;;;;;;8.27;4.82;;;13.90;99.90;;;;;;5037153;28;20044;-76
2022/07/02 04:33:16;;;;;;;9.30;4.55;;;14.00;99.90;;;;;;5051912;28;20168;-77
2022/07/02 04:35:41;;;;;;;9.93;4.60;;;14.00;99.90;;;;;;5068991;28;20037;-77
2022/07/02 04:38:07;;;;;;;9.73;5.15;;;14.00;99.90;;;;;;5051195;28;20040;-78
2022/07/02 04:40:32;;;;;;;11.57;4.80;;;14.00;99.90;;;;;;5053658;28;20558;-77
2022/07/02 04:42:58;;;;;;;8.57;5.10;;;14.00;99.90;;;;;;5033905;28;20481;-77
2022/07/02 04:45:23;;;;;;;9.60;5.38;;;14.10;99.90;;;;;;5070406;28;20060;-77
2022/07/02 04:47:49;;;;;;;9.18;5.10;;;14.10;99.90;;;;;;5043101;28;20045;-78
2022/07/02 04:50:15;;;;;;;10.52;5.82;;;14.10;99.90;;;;;;5034567;28;20098;-78
2022/07/02 04:52:40;;;;;;;10.02;5.53;;;14.20;99.90;;;;;;5037013;28;20036;-78
2022/07/02 04:55:06;;;;;;;9.45;5.88;;;14.20;99.90;;;;;;5052035;28;20083;-77
2022/07/02 04:57:32;;;;;;;10.23;6.30;;;14.20;99.90;;;;;;5058455;28;20034;-76
2022/07/02 04:59:57;;;;;;;9.27;5.95;;;14.30;99.90;;;;;;5033774;28;20397;-77
2022/07/02 05:02:23;;;;;;;11.77;6.68;;;14.30;99.90;;;;;;5048390;28;20068;-77
2022/07/02 05:04:49;;;;;;;9.43;6.30;;;14.40;99.90;;;;;;5067909;28;20501;-79
2022/07/02 05:07:14;;;;;;;13.35;7.05;;;14.40;99.90;;;;;;5049167;28;20038;-79
2022/07/02 05:09:40;;;;;;;10.85;6.20;;;14.40;99.90;;;;;;5056978;28;20037;-78
2022/07/02 05:12:06;;;;;;;11.15;6.60;;;14.50;99.90;;;;;;5052410;28;20057;-78
2022/07/02 05:14:32;;;;;;;11.52;6.97;;;14.50;99.90;;;;;;5033720;28;20116;-77
2022/07/02 05:16:57;;;;;;;10.32;6.03;;;14.50;99.90;;;;;;5036655;28;20076;-77
2022/07/02 05:19:23;;;;;;;8.55;6.15;;;14.60;99.90;;;;;;5028407;28;20041;-77
2022/07/02 05:21:48;;;;;;;11.02;6.15;;;14.70;99.90;;;;;;5051384;28;20521;-78
2022/07/02 05:24:14;;;;;;;10.35;6.00;;;14.70;99.90;;;;;;5053062;28;20044;-78
2022/07/02 05:26:40;;;;;;;9.18;6.63;;;14.80;99.90;;;;;;5035067;28;20043;-77
2022/07/02 05:29:06;;;;;;;9.13;5.97;;;14.90;99.90;;;;;;5033945;28;20041;-77
2022/07/02 05:31:31;;;;;;;10.85;5.78;;;14.90;99.90;;;;;;5044717;28;20094;-77
2022/07/02 05:33:57;;;;;;;11.32;6.22;;;14.90;99.90;;;;;;5036133;28;20480;-77
2022/07/02 05:36:23;;;;;;;8.95;5.32;;;15.00;99.90;;;;;;5050322;28;20044;-77
2022/07/02 05:38:49;;;;;;;9.00;5.97;;;15.10;99.90;;;;;;5042508;28;20072;-78
2022/07/02 05:41:14;;;;;;;10.48;6.00;;;15.10;99.90;;;;;;5048646;28;20504;-77
2022/07/02 05:43:40;;;;;;;8.63;5.40;;;15.10;99.90;;;;;;5037985;28;20408;-77
2022/07/02 05:46:05;;;;;;;13.02;5.55;;;15.40;99.90;;;;;;5046793;28;20040;-77
2022/07/02 05:48:31;;;;;;;11.23;5.22;;;15.40;99.90;;;;;;5031708;28;20048;-77
2022/07/02 05:50:56;;;;;;;12.20;5.90;;;15.50;99.90;;;;;;5060137;28;20615;-77
2022/07/02 05:53:22;;;;;;;11.10;5.40;;;15.50;99.90;;;;;;5033203;28;20555;-77
2022/07/02 05:55:48;;;;;;;9.98;5.28;;;15.60;99.90;;;;;;5016265;28;20059;-76
2022/07/02 05:58:13;;;;;;;8.50;4.88;;;15.60;99.90;;;;;;5032142;28;20032;-77
2022/07/02 06:00:39;;;;;;;8.50;4.90;;;15.80;99.90;;;;;;5042611;28;20040;-77
2022/07/02 06:03:05;;;;;;;8.77;4.82;;;15.90;99.90;;;;;;5059048;28;20041;-76
2022/07/02 06:08:15;;;;;;;9.25;4.63;;;16.10;99.90;;;;;;5033510;28;20045;-77
2022/07/02 06:10:40;;;;;;;8.30;4.63;;;16.10;99.90;;;;;;5046129;28;20508;-77
2022/07/02 06:13:06;;;;;;;6.60;4.22;;;16.30;99.90;;;;;;5034175;28;20064;-76
2022/07/02 06:15:32;;;;;;;7.93;4.55;;;16.30;99.90;;;;;;5047893;28;20121;-77
2022/07/02 06:18:00;;;;;;;7.53;4.10;;;16.50;99.90;;;;;;5032639;28;20083;-76
2022/07/02 06:20:26;;;;;;;9.10;5.00;;;16.50;99.90;;;;;;5067530;28;20037;-76
2022/07/02 06:22:53;;;;;;;7.70;4.20;;;16.60;99.90;;;;;;5046648;28;20037;-77
2022/07/02 06:25:18;;;;;;;7.88;4.00;;;16.80;99.90;;;;;;5034295;28;20044;-77
2022/07/02 06:27:44;;;;;;;9.05;4.50;;;16.80;99.90;;;;;;5058901;28;20041;-78
2022/07/02 06:30:10;;;;;;;8.18;4.00;;;16.80;99.90;;;;;;5033897;28;20049;-77
2022/07/02 06:32:36;;;;;;;7.97;3.72;;;16.90;99.90;;;;;;5050016;28;20128;-77
2022/07/02 06:35:03;;;;;;;8.68;4.10;;;16.90;99.90;;;;;;5044607;28;20541;-81
2022/07/02 06:37:28;;;;;;;9.00;3.50;;;17.00;99.90;;;;;;5050406;28;20068;-76
2022/07/02 06:39:54;;;;;;;7.80;3.33;;;17.00;99.90;;;;;;5034123;28;20079;-77
2022/07/02 06:42:19;;;;;;;7.55;3.78;;;17.10;99.90;;;;;;5051112;28;20471;-80
2022/07/02 06:44:46;;;;;;;7.53;3.60;;;17.20;99.90;;;;;;5050841;28;20044;-80
2022/07/02 06:47:12;;;;;;;7.43;2.90;;;17.30;99.90;;;;;;5028759;28;20040;-79
2022/07/02 06:49:38;;;;;;;11.32;2.92;;;17.40;99.90;;;;;;5032067;28;20068;-78
2022/07/02 06:52:05;;;;;;;6.93;2.40;;;17.40;99.90;;;;;;5051285;28;20072;-79
2022/07/02 06:54:31;;;;;;;9.75;2.78;;;17.50;99.90;;;;;;5051063;28;20052;-78
2022/07/02 06:56:56;;;;;;;6.72;2.40;;;17.50;99.90;;;;;;5068351;28;20453;-78
2022/07/02 06:59:22;;;;;;;4.60;2.63;;;17.50;99.90;;;;;;5051514;28;20045;-78
2022/07/02 07:01:47;;;;;;;8.82;2.13;;;17.60;99.90;;;;;;5068076;28;20033;-78
2022/07/02 07:04:14;;;;;;;7.38;2.17;;;17.60;99.90;;;;;;5051555;28;20041;-78
2022/07/02 07:06:41;;;;;;;5.28;2.17;;;17.70;99.90;;;;;;5034569;28;20044;-79
2022/07/02 07:09:09;;;;;;;4.97;1.77;;;17.70;99.90;;;;;;5051129;28;20044;-79
2022/07/02 07:11:34;;;;;;;6.80;2.20;;;17.80;99.90;;;;;;5051292;28;20128;-78
2022/07/02 07:14:00;;;;;;;5.15;1.80;;;17.80;99.90;;;;;;5049890;28;20438;-79
2022/07/02 07:16:26;;;;;;;4.20;1.70;;;17.90;99.90;;;;;;5034312;28;20451;-78
2022/07/02 07:18:57;;;;;;;4.68;1.60;;;17.90;99.90;;;;;;5051097;28;20539;-79
2022/07/02 07:21:22;;;;;;;3.40;1.92;;;17.90;99.90;;;;;;5051475;28;20087;-79
2022/07/02 07:23:48;;;;;;;4.28;1.80;;;18.00;99.90;;;;;;5050778;28;20045;-79
2022/07/02 07:26:13;;;;;;;7.32;1.60;;;18.10;99.90;;;;;;5034749;28;20044;-79
2022/07/02 07:28:39;;;;;;;5.97;1.50;;;18.10;99.90;;;;;;5051242;28;20463;-79
2022/07/02 07:31:04;;;;;;;4.90;1.52;;;18.10;99.90;;;;;;5034293;28;20073;-79
2022/07/02 07:33:30;;;;;;;3.65;1.25;;;18.20;99.90;;;;;;5051582;28;20037;-79
2022/07/02 07:35:57;;;;;;;4.50;1.45;;;18.30;99.90;;;;;;5050858;28;20481;-79
2022/07/02 07:38:23;;;;;;;6.40;1.40;;;18.30;99.90;;;;;;5034341;28;20076;-79
2022/07/02 07:40:48;;;;;;;4.18;1.45;;;18.40;99.90;;;;;;5050996;28;20068;-79
2022/07/02 07:43:14;;;;;;;3.72;1.83;;;18.40;99.90;;;;;;5051257;28;20080;-79
2022/07/02 07:45:40;;;;;;;4.25;1.42;;;18.50;99.90;;;;;;5033101;28;20037;-79
2022/07/02 07:48:05;;;;;;;3.40;1.05;;;18.60;99.90;;;;;;5031301;28;20521;-79
2022/07/02 07:50:31;;;;;;;3.80;1.38;;;18.60;99.90;;;;;;5043666;28;20404;-77
2022/07/02 07:52:57;;;;;;;2.88;1.33;;;18.70;99.90;;;;;;5036671;28;20481;-78
2022/07/02 07:55:22;;;;;;;2.75;1.30;;;18.80;99.90;;;;;;5069931;28;20453;-77
2022/07/02 07:57:48;;;;;;;2.08;1.35;;;18.80;99.90;;;;;;5053392;28;20037;-77
2022/07/02 08:00:14;;;;;;;4.97;1.50;;;18.90;99.90;;;;;;5025800;28;20041;-78
2022/07/02 08:02:40;;;;;;;7.75;1.40;;;19.00;99.90;;;;;;5052358;28;20115;-78
2022/07/02 08:05:06;;;;;;;3.30;1.40;;;19.10;99.90;;;;;;5053843;28;20098;-77
2022/07/02 08:07:39;;;;;;;5.63;1.60;;;19.20;99.90;;;;;;5053668;28;20044;-78
2022/07/02 08:10:10;;;;;;;5.78;1.40;;;19.30;99.90;;;;;;5053329;28;20512;-77
2022/07/02 08:12:38;;;;;;;3.37;1.20;;;19.40;99.90;;;;;;5035211;28;20052;-78
2022/07/02 08:15:04;;;;;;;3.67;1.00;;;19.40;99.90;;;;;;5044933;28;20307;-77
2022/07/02 08:17:30;;;;;;;2.65;1.10;;;19.50;99.90;;;;;;5037023;28;20048;-77
2022/07/02 08:19:56;;;;;;;4.20;1.17;;;19.50;99.90;;;;;;5053412;28;20041;-77
2022/07/02 08:22:22;;;;;;;4.40;1.20;;;19.50;99.90;;;;;;5051960;28;20519;-78
2022/07/02 08:24:48;;;;;;;4.57;1.42;;;19.50;99.90;;;;;;5035748;28;20401;-78
2022/07/02 08:27:13;;;;;;;5.47;1.10;;;19.50;99.90;;;;;;5037341;28;20041;-79
2022/07/02 08:29:39;;;;;;;4.25;1.00;;;19.60;99.90;;;;;;5052304;28;20040;-79
2022/07/02 08:32:06;;;;;;;4.07;1.20;;;19.60;99.90;;;;;;5048856;28;20456;-78
2022/07/02 08:34:32;;;;;;;3.28;1.17;;;19.60;99.90;;;;;;5052800;28;20488;-78
2022/07/02 08:36:58;;;;;;;2.90;1.00;;;19.70;99.90;;;;;;5036559;28;20091;-79
2022/07/02 08:39:24;;;;;;;1.85;0.70;;;19.80;99.90;;;;;;5053028;28;20059;-78
2022/07/02 08:41:52;;;;;;;2.72;0.82;;;19.80;99.90;;;;;;5051417;28;20041;-78
2022/07/02 08:44:20;;;;;;;1.00;0.70;;;19.90;99.90;;;;;;5053293;28;20040;-78
2022/07/02 08:46:47;;;;;;;3.53;0.75;;;20.00;99.90;;;;;;5053376;28;20090;-78
2022/07/02 08:49:17;;;;;;;3.95;0.60;;;19.90;99.90;;;;;;5049114;28;20039;-78
2022/07/02 08:51:50;;;;;;;2.03;0.70;;;20.10;99.90;;;;;;5021451;28;20033;-78
2022/07/02 08:54:17;;;;;;;2.03;0.70;;;20.00;99.90;;;;;;5049182;28;20079;-78
2022/07/02 08:56:43;;;;;;;0.95;0.70;;;20.00;99.90;;;;;;5035940;28;20072;-79
2022/07/02 08:59:09;;;;;;;1.88;0.70;;;20.10;99.90;;;;;;5036604;28;20044;-78
2022/07/02 09:01:35;;;;;;;1.63;0.73;;;20.10;99.90;;;;;;5048041;28;20508;-78
2022/07/02 09:04:02;;;;;;;1.60;0.60;;;20.30;99.90;;;;;;5048836;28;20519;-78
2022/07/02 09:06:30;;;;;;;2.22;0.80;;;20.30;99.10;;;;;;5068611;28;20500;-78
2022/07/02 09:08:56;;;;;;;3.33;0.70;;;20.30;99.90;;;;;;5051348;28;20094;-79
2022/07/02 09:11:23;;;;;;;1.67;0.77;;;20.40;99.90;;;;;;5035299;28;20052;-78
2022/07/02 09:13:49;;;;;;;1.85;0.75;;;20.40;99.90;;;;;;5047816;28;20041;-78
2022/07/02 09:16:15;;;;;;;2.45;0.85;;;20.50;99.90;;;;;;5050313;28;20078;-78
2022/07/02 09:18:41;;;;;;;1.45;0.60;;;20.60;99.90;;;;;;5035900;28;20120;-79
2022/07/02 09:21:06;;;;;;;2.80;0.73;;;20.60;99.60;;;;;;5052499;28;20033;-78
2022/07/02 09:23:32;;;;;;;1.80;0.80;;;20.70;99.90;;;;;;5030330;28;20048;-78
2022/07/02 09:25:58;;;;;;;2.45;0.82;;;20.70;99.50;;;;;;5049553;28;20036;-78
2022/07/02 09:28:24;;;;;;;1.70;0.68;;;20.80;99.90;;;;;;5036680;28;20139;-78
2022/07/02 09:30:49;;;;;;;2.38;0.68;;;20.90;99.90;;;;;;5040112;28;20132;-79
2022/07/02 09:33:37;;;;;;;2.22;0.70;;;21.00;99.30;;;;;;5032797;28;20045;-79
2022/07/02 09:36:10;;;;;;;1.45;0.70;;;21.00;98.70;;;;;;5051358;28;20384;-79
2022/07/02 09:38:44;;;;;;;0.63;0.63;;;21.10;99.90;;;;;;5045911;28;20137;-78
2022/07/02 09:41:15;;;;;;;1.55;0.60;;;21.10;99.90;;;;;;5049615;28;20190;-78
2022/07/02 09:43:41;;;;;;;1.50;0.43;;;21.20;98.50;;;;;;5034645;28;20048;-78
2022/07/02 09:46:18;;;;;;;0.50;0.47;;;21.20;99.10;;;;;;5051975;28;20287;-78
2022/07/02 09:48:45;;;;;;;0.98;0.60;;;21.30;97.60;;;;;;5051535;28;20041;-79
2022/07/02 09:51:11;;;;;;;2.10;0.60;;;21.40;99.50;;;;;;5021869;28;20374;-78
2022/07/02 09:53:50;;;;;;;3.25;0.70;;;21.40;96.80;;;;;;5021729;28;20041;-77
2022/07/02 09:56:16;;;;;;;1.52;0.50;;;21.40;95.40;;;;;;5032087;28;20167;-78
2022/07/02 09:58:42;;;;;;;0.90;0.50;;;21.40;95.70;;;;;;5049136;28;20120;-78
2022/07/02 10:01:07;;;;;;;0.95;0.47;;;21.40;96.20;;;;;;5050938;28;20060;-77
2022/07/02 10:03:45;;;;;;;4.97;0.80;;;21.40;95.40;;;;;;5048838;28;20041;-78
2022/07/02 10:06:12;;;;;;;0.95;0.50;;;21.20;96.50;;;;;;5035157;28;20041;-78
2022/07/02 10:08:39;;;;;;;3.40;0.65;;;21.30;96.60;;;;;;5046547;28;20059;-78
2022/07/02 10:11:05;;;;;;;2.53;0.50;;;21.30;96.10;;;;;;5051621;28;20052;-76
2022/07/02 10:13:31;;;;;;;3.17;0.90;;;21.30;96.60;;;;;;5034239;28;20041;-78
2022/07/02 10:16:02;;;;;;;2.20;0.60;;;21.30;97.60;;;;;;5029986;28;20037;-77
2022/07/02 10:18:29;;;;;;;3.30;0.80;;;21.40;98.00;;;;;;5035517;28;20036;-78
2022/07/02 10:20:59;;;;;;;1.52;0.60;;;21.40;95.70;;;;;;5035217;28;20291;-78
2022/07/02 10:23:26;;;;;;;3.05;0.60;;;21.40;95.30;;;;;;5045842;28;20087;-77
2022/07/02 10:25:52;;;;;;;3.63;0.70;;;21.30;97.40;;;;;;5051520;28;20044;-79
2022/07/02 10:28:18;;;;;;;2.17;0.85;;;21.50;97.60;;;;;;5032103;28;20064;-78
2022/07/02 10:30:44;;;;;;;2.42;0.60;;;21.50;97.60;;;;;;5035590;28;20099;-78
2022/07/02 10:33:32;;;;;;;4.90;1.20;;;21.50;98.10;;;;;;5052094;28;20037;-78
2022/07/02 10:35:59;;;;;;;3.60;0.60;;;21.60;97.20;;;;;;5032414;28;20555;-78
2022/07/02 10:38:37;;;;;;;3.75;0.70;;;21.60;97.10;;;;;;5034799;28;20444;-79
2022/07/02 10:41:03;;;;;;;1.67;0.50;;;21.80;98.30;;;;;;5051906;28;20037;-78
2022/07/02 10:43:32;;;;;;;0.98;0.50;;;21.90;97.00;;;;;;5032784;28;20037;-79
2022/07/02 10:46:09;;;;;;;1.00;0.60;;;22.00;97.60;;;;;;5050973;28;20039;-78
2022/07/02 10:48:46;;;;;;;1.55;0.60;;;22.10;97.30;;;;;;5051296;28;20037;-79
2022/07/02 10:51:31;;;;;;;1.85;0.60;;;21.90;96.60;;;;;;5068545;28;20497;-78
2022/07/02 10:54:08;;;;;;;1.95;0.60;;;21.90;95.00;;;;;;5049121;28;20411;-77
2022/07/02 10:56:46;;;;;;;1.58;0.70;;;21.90;96.60;;;;;;5028617;28;20383;-79
2022/07/02 10:59:25;;;;;;;0.63;0.45;;;21.90;94.50;;;;;;5050978;28;20033;-77
2022/07/02 11:02:05;;;;;;;1.10;0.47;;;21.80;94.00;;;;;;5017676;28;20119;-78
2022/07/02 11:04:31;;;;;;;2.65;0.60;;;22.00;95.80;;;;;;5053053;28;20040;-79
2022/07/02 11:07:11;;;;;;;0.88;0.60;;;22.10;93.90;;;;;;5046939;28;20045;-78
2022/07/02 11:09:48;;;;;;;3.33;0.70;;;22.00;95.40;;;;;;5031769;28;20051;-79
2022/07/02 11:12:21;;;;;;;2.95;0.90;;;21.90;95.40;;;;;;5026997;28;20064;-79
2022/07/02 11:14:54;;;;;;;2.15;0.70;;;21.70;96.90;;;;;;5015280;28;20409;-78
2022/07/02 11:17:22;;;;;;;1.63;1.45;;;21.60;97.10;;;;;;5042031;28;20052;-78
2022/07/02 11:19:53;;;;;;;1.75;0.75;;;21.90;95.10;;;;;;5048745;28;20488;-78
2022/07/02 11:22:18;;;;;;;4.13;0.70;;;22.00;96.30;;;;;;5051937;28;20033;-78
2022/07/02 11:24:45;;;;;;;2.70;0.73;;;22.00;95.80;;;;;;5050004;28;20524;-78
2022/07/02 11:27:13;;;;;;;2.35;0.60;;;22.10;96.30;;;;;;5028465;28;20041;-78
2022/07/02 11:29:38;;;;;;;1.90;0.60;;;22.10;95.30;;;;;;5034120;28;20060;-78
2022/07/02 11:32:04;;;;;;;3.47;0.60;;;22.10;94.40;;;;;;5051738;28;20143;-78
2022/07/02 11:34:30;;;;;;;2.75;0.63;;;22.10;95.00;;;;;;5037822;28;20052;-79
2022/07/02 11:36:56;;;;;;;2.03;0.68;;;22.10;96.10;;;;;;5046194;28;20045;-79
2022/07/02 11:39:24;;;;;;;2.38;0.40;;;22.00;94.40;;;;;;5051247;28;20032;-79
2022/07/02 11:41:51;;;;;;;3.58;0.85;;;21.90;95.60;;;;;;5066811;28;20453;-78
2022/07/02 11:44:19;;;;;;;2.45;0.70;;;22.00;96.10;;;;;;5037697;28;20409;-79
2022/07/02 11:46:53;;;;;;;1.95;0.70;;;22.00;96.40;;;;;;5049208;28;20038;-78
2022/07/02 11:49:21;;;;;;;2.42;0.82;;;21.90;96.30;;;;;;5054549;28;20124;-79
2022/07/02 11:51:48;;;;;;;5.80;0.77;;;21.80;96.80;;;;;;5044138;28;20046;-79
2022/07/02 11:54:14;;;;;;;1.83;0.80;;;21.70;96.60;;;;;;5053593;28;20102;-79
2022/07/02 11:56:42;;;;;;;3.42;0.70;;;21.70;96.10;;;;;;5054268;28;20493;-79
2022/07/02 11:59:10;;;;;;;2.10;0.70;;;21.80;94.40;;;;;;5049793;28;20025;-78
2022/07/02 12:01:38;;;;;;;1.67;0.70;;;21.70;94.60;;;;;;5070161;28;20491;-78
2022/07/02 12:04:05;;;;;;;3.00;0.60;;;21.70;94.90;;;;;;5050661;28;20048;-79
2022/07/02 12:06:51;;;;;;;0.88;0.60;;;21.70;96.50;;;;;;5060037;28;20505;-79
2022/07/02 12:09:19;;;;;;;3.75;0.70;;;21.60;96.90;;;;;;5053155;28;20044;-79
2022/07/02 12:11:47;;;;;;;1.83;0.73;;;21.70;97.30;;;;;;5053756;28;20068;-79
2022/07/02 12:14:13;;;;;;;3.55;0.80;;;21.90;96.40;;;;;;5054088;28;20421;-79
2022/07/02 12:16:41;;;;;;;2.25;0.85;;;22.00;97.30;;;;;;5054196;28;20500;-79
2022/07/02 12:19:09;;;;;;;2.20;0.85;;;22.00;96.40;;;;;;5052809;28;20040;-79
2022/07/02 12:21:41;;;;;;;2.63;0.90;;;22.10;95.60;;;;;;5052376;28;20400;-79
2022/07/02 12:24:21;;;;;;;4.85;1.45;;;22.00;95.50;;;;;;5036705;28;20055;-79
2022/07/02 12:26:48;;;;;;;3.58;0.90;;;21.80;96.90;;;;;;5053040;28;20399;-78
2022/07/02 12:32:08;;;;;;;2.35;0.98;;;21.60;98.10;;;;;;5053945;28;20132;-79
2022/07/02 12:34:59;;;;;;;1.55;0.73;;;21.70;98.10;;;;;;5032930;28;20049;-79
2022/07/02 12:37:25;;;;;;;2.55;0.60;;;21.80;97.80;;;;;;5032974;28;20041;-78
2022/07/02 12:39:57;;;;;;;3.08;0.80;;;21.80;95.70;;;;;;5048303;28;20557;-79
2022/07/02 12:42:23;;;;;;;2.22;0.70;;;21.70;95.40;;;;;;5050386;28;20431;-78
2022/07/02 12:44:53;;;;;;;3.80;0.90;;;21.70;97.60;;;;;;5052723;28;20079;-79
2022/07/02 12:47:50;;;;;;;3.38;0.98;;;21.50;97.80;;;;;;5036824;28;20091;-78
2022/07/02 12:50:15;;;;;;;2.88;0.80;;;21.60;97.40;;;;;;5067311;28;20052;-78
2022/07/02 12:52:51;;;;;;;3.40;1.08;;;21.50;97.90;;;;;;5034048;28;20033;-78
2022/07/02 12:55:42;;;;;;;2.42;1.10;;;21.50;98.10;;;;;;5034632;28;20045;-78